MHLM/SAP METAR and TAF weather

Enter ICAO airport designator
Station Type Date Time Source
MHLM METAR 2020/04/07 16:00 UTC NOAA

MHLM 071600Z 09006KT 8000 FEW032 27/14 Q1022 A3018


Station Type Date Time Source
MHLM Decoded METAR 2020/04/07 16:00 UTC NOAA

La Mesa San Pedro Sula , Honduras (MHLM) 15-27N 087-56W 31M
Apr 07, 2020 - 12:00 PM EDT / 2020.04.07 1600 UTC
Wind: from the E (090 degrees) at 7 MPH (6 KT):0
Visibility: 4 mile(s):0
Sky conditions: mostly clear
Temperature: 80 F (27 C)
Dew Point: 57 F (14 C)
Relative Humidity: 44%
Pressure (altimeter): 30.18 in. Hg (1022 hPa)
ob: MHLM 071600Z 09006KT 8000 FEW032 27/14 Q1022 A3018
cycle: 16

Station Type Date Time Source
MHLM TAF 2020/04/07 12:21 UTC NOAA

TAF MHLM 071025Z 0712/0812 15004KT 9999 FEW025 TX35/0720Z TN22/0812Z
BECMG 0715/0717 05008KT
BECMG 0803/0805 15002KT

Example: see airport list